sensor_id;sensor_type;location;lat;lon;timestamp;temperature;humidity
21115;DHT22;10715;48.546;9.896;2022-08-07T00:00:21;10.90;99.90
21115;DHT22;10715;48.546;9.896;2022-08-07T00:02:47;11.00;99.90
21115;DHT22;10715;48.546;9.896;2022-08-07T00:05:13;11.00;99.90
21115;DHT22;10715;48.546;9.896;2022-08-07T00:07:38;11.00;99.90
21115;DHT22;10715;48.546;9.896;2022-08-07T00:10:05;11.00;99.90
21115;DHT22;10715;48.546;9.896;2022-08-07T00:12:31;11.00;99.90
21115;DHT22;10715;48.546;9.896;2022-08-07T00:14:57;11.00;99.90
21115;DHT22;10715;48.546;9.896;2022-08-07T00:17:23;10.90;99.90
21115;DHT22;10715;48.546;9.896;2022-08-07T00:19:49;10.90;99.90
21115;DHT22;10715;48.546;9.896;2022-08-07T00:22:15;10.80;99.90
21115;DHT22;10715;48.546;9.896;2022-08-07T00:24:41;10.80;99.90
21115;DHT22;10715;48.546;9.896;2022-08-07T00:27:06;10.80;99.90
21115;DHT22;10715;48.546;9.896;2022-08-07T00:29:33;10.80;99.90
21115;DHT22;10715;48.546;9.896;2022-08-07T00:31:58;10.70;99.90
21115;DHT22;10715;48.546;9.896;2022-08-07T00:34:25;10.70;99.90
21115;DHT22;10715;48.546;9.896;2022-08-07T00:36:51;10.70;99.90
21115;DHT22;10715;48.546;9.896;2022-08-07T00:39:17;10.70;99.90
21115;DHT22;10715;48.546;9.896;2022-08-07T00:41:55;10.70;99.90
21115;DHT22;10715;48.546;9.896;2022-08-07T00:44:22;10.70;99.90
21115;DHT22;10715;48.546;9.896;2022-08-07T00:46:48;10.70;99.90
21115;DHT22;10715;48.546;9.896;2022-08-07T00:49:14;10.60;99.90
21115;DHT22;10715;48.546;9.896;2022-08-07T00:51:40;10.60;99.90
21115;DHT22;10715;48.546;9.896;2022-08-07T00:54:06;10.60;99.90
21115;DHT22;10715;48.546;9.896;2022-08-07T00:56:32;10.60;99.90
21115;DHT22;10715;48.546;9.896;2022-08-07T00:58:59;10.50;99.90
21115;DHT22;10715;48.546;9.896;2022-08-07T01:01:25;10.50;99.90
21115;DHT22;10715;48.546;9.896;2022-08-07T01:03:51;10.50;99.90
21115;DHT22;10715;48.546;9.896;2022-08-07T01:06:17;10.50;99.90
21115;DHT22;10715;48.546;9.896;2022-08-07T01:08:44;10.50;99.90
21115;DHT22;10715;48.546;9.896;2022-08-07T01:11:13;10.50;99.90
21115;DHT22;10715;48.546;9.896;2022-08-07T01:13:40;10.40;99.90
21115;DHT22;10715;48.546;9.896;2022-08-07T01:16:07;10.40;99.90
21115;DHT22;10715;48.546;9.896;2022-08-07T01:18:34;10.30;99.90
21115;DHT22;10715;48.546;9.896;2022-08-07T01:21:13;10.30;99.90
21115;DHT22;10715;48.546;9.896;2022-08-07T01:23:41;10.30;99.90
21115;DHT22;10715;48.546;9.896;2022-08-07T01:26:09;10.30;99.90
21115;DHT22;10715;48.546;9.896;2022-08-07T01:28:36;10.30;99.90
21115;DHT22;10715;48.546;9.896;2022-08-07T01:31:03;10.30;99.90
21115;DHT22;10715;48.546;9.896;2022-08-07T01:33:29;10.30;99.90
21115;DHT22;10715;48.546;9.896;2022-08-07T01:35:57;10.30;99.90
21115;DHT22;10715;48.546;9.896;2022-08-07T01:38:25;10.30;99.90
21115;DHT22;10715;48.546;9.896;2022-08-07T01:40:57;10.30;99.90
21115;DHT22;10715;48.546;9.896;2022-08-07T01:43:24;10.20;99.90
21115;DHT22;10715;48.546;9.896;2022-08-07T01:45:50;10.20;99.90
21115;DHT22;10715;48.546;9.896;2022-08-07T01:48:17;10.20;99.90
21115;DHT22;10715;48.546;9.896;2022-08-07T01:50:46;10.10;99.90
21115;DHT22;10715;48.546;9.896;2022-08-07T01:53:13;10.10;99.90
21115;DHT22;10715;48.546;9.896;2022-08-07T01:55:44;10.00;99.90
21115;DHT22;10715;48.546;9.896;2022-08-07T01:58:14;10.00;99.90
21115;DHT22;10715;48.546;9.896;2022-08-07T02:00:42;10.00;99.90
21115;DHT22;10715;48.546;9.896;2022-08-07T02:03:13;9.90;99.90
21115;DHT22;10715;48.546;9.896;2022-08-07T02:05:41;9.90;99.90
21115;DHT22;10715;48.546;9.896;2022-08-07T02:08:11;9.80;99.90
21115;DHT22;10715;48.546;9.896;2022-08-07T02:10:39;9.80;99.90
21115;DHT22;10715;48.546;9.896;2022-08-07T02:13:06;9.80;99.90
21115;DHT22;10715;48.546;9.896;2022-08-07T02:15:35;9.80;99.90
21115;DHT22;10715;48.546;9.896;2022-08-07T02:18:02;9.70;99.90
21115;DHT22;10715;48.546;9.896;2022-08-07T02:20:30;9.70;99.90
21115;DHT22;10715;48.546;9.896;2022-08-07T02:23:00;9.70;99.90
21115;DHT22;10715;48.546;9.896;2022-08-07T02:25:29;9.60;99.90
21115;DHT22;10715;48.546;9.896;2022-08-07T02:27:57;9.70;99.90
21115;DHT22;10715;48.546;9.896;2022-08-07T02:30:25;9.60;99.90
21115;DHT22;10715;48.546;9.896;2022-08-07T02:32:52;9.60;99.90
21115;DHT22;10715;48.546;9.896;2022-08-07T02:35:19;9.60;99.90
21115;DHT22;10715;48.546;9.896;2022-08-07T02:37:46;9.60;99.90
21115;DHT22;10715;48.546;9.896;2022-08-07T02:40:12;9.60;99.90
21115;DHT22;10715;48.546;9.896;2022-08-07T02:42:38;9.50;99.90
21115;DHT22;10715;48.546;9.896;2022-08-07T02:45:07;9.60;99.90
21115;DHT22;10715;48.546;9.896;2022-08-07T02:47:35;9.60;99.90
21115;DHT22;10715;48.546;9.896;2022-08-07T02:50:08;9.70;99.90
21115;DHT22;10715;48.546;9.896;2022-08-07T02:52:38;9.80;99.90
21115;DHT22;10715;48.546;9.896;2022-08-07T02:55:19;9.90;99.90
21115;DHT22;10715;48.546;9.896;2022-08-07T02:57:46;9.90;99.90
21115;DHT22;10715;48.546;9.896;2022-08-07T03:00:13;10.00;99.90
21115;DHT22;10715;48.546;9.896;2022-08-07T03:02:41;10.00;99.90
21115;DHT22;10715;48.546;9.896;2022-08-07T03:05:09;10.10;99.90
21115;DHT22;10715;48.546;9.896;2022-08-07T03:07:38;10.10;99.90
21115;DHT22;10715;48.546;9.896;2022-08-07T03:10:06;10.10;99.90
21115;DHT22;10715;48.546;9.896;2022-08-07T03:12:33;10.10;99.90
21115;DHT22;10715;48.546;9.896;2022-08-07T03:15:00;10.10;99.90
21115;DHT22;10715;48.546;9.896;2022-08-07T03:17:27;10.00;99.90
21115;DHT22;10715;48.546;9.896;2022-08-07T03:19:53;10.00;99.90
21115;DHT22;10715;48.546;9.896;2022-08-07T03:22:21;10.00;99.90
21115;DHT22;10715;48.546;9.896;2022-08-07T03:24:48;10.00;99.90
21115;DHT22;10715;48.546;9.896;2022-08-07T03:27:14;10.00;99.90
21115;DHT22;10715;48.546;9.896;2022-08-07T03:29:48;10.00;99.90
21115;DHT22;10715;48.546;9.896;2022-08-07T03:32:17;10.00;99.90
21115;DHT22;10715;48.546;9.896;2022-08-07T03:34:47;10.00;99.90
21115;DHT22;10715;48.546;9.896;2022-08-07T03:37:18;10.00;99.90
21115;DHT22;10715;48.546;9.896;2022-08-07T03:39:46;10.00;99.90
21115;DHT22;10715;48.546;9.896;2022-08-07T03:42:14;10.00;99.90
21115;DHT22;10715;48.546;9.896;2022-08-07T03:44:40;10.00;99.90
21115;DHT22;10715;48.546;9.896;2022-08-07T03:47:07;10.00;99.90
21115;DHT22;10715;48.546;9.896;2022-08-07T03:49:34;10.00;99.90
21115;DHT22;10715;48.546;9.896;2022-08-07T03:52:00;10.00;99.90
21115;DHT22;10715;48.546;9.896;2022-08-07T03:54:26;9.90;99.90
21115;DHT22;10715;48.546;9.896;2022-08-07T03:56:53;9.90;99.90
21115;DHT22;10715;48.546;9.896;2022-08-07T03:59:20;9.90;99.90
21115;DHT22;10715;48.546;9.896;2022-08-07T04:01:46;9.90;99.90
21115;DHT22;10715;48.546;9.896;2022-08-07T04:04:15;9.90;99.90
21115;DHT22;10715;48.546;9.896;2022-08-07T04:06:41;10.00;99.90
21115;DHT22;10715;48.546;9.896;2022-08-07T04:09:08;10.00;99.90
21115;DHT22;10715;48.546;9.896;2022-08-07T04:11:35;10.00;99.90
21115;DHT22;10715;48.546;9.896;2022-08-07T04:14:02;10.10;99.90
21115;DHT22;10715;48.546;9.896;2022-08-07T04:16:28;10.10;99.90
21115;DHT22;10715;48.546;9.896;2022-08-07T04:18:54;10.10;99.90
21115;DHT22;10715;48.546;9.896;2022-08-07T04:21:20;10.20;99.90
21115;DHT22;10715;48.546;9.896;2022-08-07T04:23:47;10.20;99.90
21115;DHT22;10715;48.546;9.896;2022-08-07T04:26:14;10.30;99.90
21115;DHT22;10715;48.546;9.896;2022-08-07T04:28:40;10.30;99.90
21115;DHT22;10715;48.546;9.896;2022-08-07T04:31:07;10.30;99.90
21115;DHT22;10715;48.546;9.896;2022-08-07T04:33:35;10.40;99.90
21115;DHT22;10715;48.546;9.896;2022-08-07T04:36:02;10.40;99.90
21115;DHT22;10715;48.546;9.896;2022-08-07T04:38:28;10.40;99.90
21115;DHT22;10715;48.546;9.896;2022-08-07T04:40:54;10.50;99.90
21115;DHT22;10715;48.546;9.896;2022-08-07T04:43:30;10.60;99.90
21115;DHT22;10715;48.546;9.896;2022-08-07T04:57:46;12.00;99.90
21115;DHT22;10715;48.546;9.896;2022-08-07T05:00:17;12.20;99.90
21115;DHT22;10715;48.546;9.896;2022-08-07T05:05:48;12.70;99.90
21115;DHT22;10715;48.546;9.896;2022-08-07T05:08:22;12.90;99.90
21115;DHT22;10715;48.546;9.896;2022-08-07T05:10:57;13.20;99.90
21115;DHT22;10715;48.546;9.896;2022-08-07T05:13:30;13.40;99.90
21115;DHT22;10715;48.546;9.896;2022-08-07T05:16:05;13.60;99.90
21115;DHT22;10715;48.546;9.896;2022-08-07T05:18:43;13.80;99.90
21115;DHT22;10715;48.546;9.896;2022-08-07T05:21:11;13.90;99.90
21115;DHT22;10715;48.546;9.896;2022-08-07T05:26:17;14.40;99.90
21115;DHT22;10715;48.546;9.896;2022-08-07T05:28:44;14.70;99.90
21115;DHT22;10715;48.546;9.896;2022-08-07T05:31:11;15.30;99.90
21115;DHT22;10715;48.546;9.896;2022-08-07T05:33:39;16.00;99.90
21115;DHT22;10715;48.546;9.896;2022-08-07T05:36:09;16.70;99.90
21115;DHT22;10715;48.546;9.896;2022-08-07T05:38:36;17.40;99.90
21115;DHT22;10715;48.546;9.896;2022-08-07T05:41:02;18.00;99.90
21115;DHT22;10715;48.546;9.896;2022-08-07T05:43:28;18.50;99.90
21115;DHT22;10715;48.546;9.896;2022-08-07T05:45:55;18.90;99.90
21115;DHT22;10715;48.546;9.896;2022-08-07T05:48:22;19.20;99.90
21115;DHT22;10715;48.546;9.896;2022-08-07T05:50:48;19.50;99.90
21115;DHT22;10715;48.546;9.896;2022-08-07T05:53:15;19.70;99.90
21115;DHT22;10715;48.546;9.896;2022-08-07T05:55:41;19.80;99.90
21115;DHT22;10715;48.546;9.896;2022-08-07T05:58:09;20.00;99.90
21115;DHT22;10715;48.546;9.896;2022-08-07T06:00:36;20.50;99.90
21115;DHT22;10715;48.546;9.896;2022-08-07T06:03:04;20.60;99.90
21115;DHT22;10715;48.546;9.896;2022-08-07T06:05:31;20.40;99.90
21115;DHT22;10715;48.546;9.896;2022-08-07T06:07:58;20.30;99.90
21115;DHT22;10715;48.546;9.896;2022-08-07T06:10:26;20.60;99.90
21115;DHT22;10715;48.546;9.896;2022-08-07T06:12:53;20.90;99.90
21115;DHT22;10715;48.546;9.896;2022-08-07T06:15:19;21.40;99.90
21115;DHT22;10715;48.546;9.896;2022-08-07T06:17:47;21.50;99.90
21115;DHT22;10715;48.546;9.896;2022-08-07T06:20:13;21.60;99.90
21115;DHT22;10715;48.546;9.896;2022-08-07T06:22:41;21.30;99.90
21115;DHT22;10715;48.546;9.896;2022-08-07T06:25:08;20.80;99.90
21115;DHT22;10715;48.546;9.896;2022-08-07T06:27:35;20.40;99.90
21115;DHT22;10715;48.546;9.896;2022-08-07T06:30:00;19.90;99.90
21115;DHT22;10715;48.546;9.896;2022-08-07T06:32:26;19.60;99.90
21115;DHT22;10715;48.546;9.896;2022-08-07T06:34:52;19.70;99.90
21115;DHT22;10715;48.546;9.896;2022-08-07T06:37:18;19.50;99.90
21115;DHT22;10715;48.546;9.896;2022-08-07T06:39:43;19.60;99.90
21115;DHT22;10715;48.546;9.896;2022-08-07T06:42:19;19.80;99.90
21115;DHT22;10715;48.546;9.896;2022-08-07T06:44:48;20.30;99.90
21115;DHT22;10715;48.546;9.896;2022-08-07T06:47:15;21.20;99.90
21115;DHT22;10715;48.546;9.896;2022-08-07T06:49:42;22.00;99.90
21115;DHT22;10715;48.546;9.896;2022-08-07T06:52:10;22.60;99.90
21115;DHT22;10715;48.546;9.896;2022-08-07T06:54:40;23.20;99.90
21115;DHT22;10715;48.546;9.896;2022-08-07T06:57:07;23.50;97.70
21115;DHT22;10715;48.546;9.896;2022-08-07T06:59:39;23.80;96.70
21115;DHT22;10715;48.546;9.896;2022-08-07T07:02:08;24.10;95.00
21115;DHT22;10715;48.546;9.896;2022-08-07T07:04:45;24.70;93.90
21115;DHT22;10715;48.546;9.896;2022-08-07T07:07:12;25.30;92.00
21115;DHT22;10715;48.546;9.896;2022-08-07T07:09:47;25.90;89.70
21115;DHT22;10715;48.546;9.896;2022-08-07T07:15:26;27.10;83.30
21115;DHT22;10715;48.546;9.896;2022-08-07T07:23:10;27.10;76.10
21115;DHT22;10715;48.546;9.896;2022-08-07T07:25:38;27.50;73.50
21115;DHT22;10715;48.546;9.896;2022-08-07T07:28:15;27.50;73.00
21115;DHT22;10715;48.546;9.896;2022-08-07T07:30:58;28.10;73.40
21115;DHT22;10715;48.546;9.896;2022-08-07T07:33:25;28.60;66.90
21115;DHT22;10715;48.546;9.896;2022-08-07T07:35:53;28.60;67.60
21115;DHT22;10715;48.546;9.896;2022-08-07T07:38:21;29.00;64.50
21115;DHT22;10715;48.546;9.896;2022-08-07T07:40:51;29.00;63.80
21115;DHT22;10715;48.546;9.896;2022-08-07T07:43:19;29.50;63.20
21115;DHT22;10715;48.546;9.896;2022-08-07T07:45:47;29.80;59.30
21115;DHT22;10715;48.546;9.896;2022-08-07T07:48:19;29.90;58.90
21115;DHT22;10715;48.546;9.896;2022-08-07T07:50:47;29.80;57.10
21115;DHT22;10715;48.546;9.896;2022-08-07T07:53:16;28.90;57.10
21115;DHT22;10715;48.546;9.896;2022-08-07T07:55:43;28.60;59.30
21115;DHT22;10715;48.546;9.896;2022-08-07T07:58:09;28.80;58.60
21115;DHT22;10715;48.546;9.896;2022-08-07T08:00:36;29.00;57.50
21115;DHT22;10715;48.546;9.896;2022-08-07T08:03:06;29.50;57.50
21115;DHT22;10715;48.546;9.896;2022-08-07T08:05:35;30.10;57.30
21115;DHT22;10715;48.546;9.896;2022-08-07T08:08:03;31.10;54.80
21115;DHT22;10715;48.546;9.896;2022-08-07T08:10:29;31.60;53.00
21115;DHT22;10715;48.546;9.896;2022-08-07T08:12:56;31.70;51.20
21115;DHT22;10715;48.546;9.896;2022-08-07T08:15:23;31.10;51.30
21115;DHT22;10715;48.546;9.896;2022-08-07T08:17:50;30.90;52.10
21115;DHT22;10715;48.546;9.896;2022-08-07T08:20:17;31.00;51.50
21115;DHT22;10715;48.546;9.896;2022-08-07T08:22:45;31.50;50.80
21115;DHT22;10715;48.546;9.896;2022-08-07T08:25:33;31.90;50.60
21115;DHT22;10715;48.546;9.896;2022-08-07T08:28:27;31.80;50.00
21115;DHT22;10715;48.546;9.896;2022-08-07T08:30:59;32.10;48.90
21115;DHT22;10715;48.546;9.896;2022-08-07T08:33:30;31.80;48.90
21115;DHT22;10715;48.546;9.896;2022-08-07T08:35:59;32.00;49.40
21115;DHT22;10715;48.546;9.896;2022-08-07T08:38:31;31.90;47.80
21115;DHT22;10715;48.546;9.896;2022-08-07T08:41:17;31.70;49.20
21115;DHT22;10715;48.546;9.896;2022-08-07T08:43:58;32.00;49.20
21115;DHT22;10715;48.546;9.896;2022-08-07T08:51:49;31.30;47.80
21115;DHT22;10715;48.546;9.896;2022-08-07T08:57:09;30.90;48.80
21115;DHT22;10715;48.546;9.896;2022-08-07T08:59:55;30.50;49.30
21115;DHT22;10715;48.546;9.896;2022-08-07T09:02:39;29.60;50.30
21115;DHT22;10715;48.546;9.896;2022-08-07T09:05:18;29.70;51.50
21115;DHT22;10715;48.546;9.896;2022-08-07T09:10:31;29.90;50.50
21115;DHT22;10715;48.546;9.896;2022-08-07T09:27:35;27.90;49.70
21115;DHT22;10715;48.546;9.896;2022-08-07T09:30:06;27.90;50.90
21115;DHT22;10715;48.546;9.896;2022-08-07T09:32:45;27.70;50.90
21115;DHT22;10715;48.546;9.896;2022-08-07T09:37:57;27.50;51.30
21115;DHT22;10715;48.546;9.896;2022-08-07T09:40:45;27.10;52.30
21115;DHT22;10715;48.546;9.896;2022-08-07T09:53:34;29.00;48.30
21115;DHT22;10715;48.546;9.896;2022-08-07T10:02:09;29.20;47.30
21115;DHT22;10715;48.546;9.896;2022-08-07T10:13:45;33.00;43.30
21115;DHT22;10715;48.546;9.896;2022-08-07T10:19:18;33.80;40.90
21115;DHT22;10715;48.546;9.896;2022-08-07T10:22:43;33.70;41.50
21115;DHT22;10715;48.546;9.896;2022-08-07T10:30:58;31.80;42.70
21115;DHT22;10715;48.546;9.896;2022-08-07T10:42:10;34.10;41.40
21115;DHT22;10715;48.546;9.896;2022-08-07T10:50:22;34.10;41.40
21115;DHT22;10715;48.546;9.896;2022-08-07T10:55:30;33.60;40.30
21115;DHT22;10715;48.546;9.896;2022-08-07T10:58:31;33.10;40.40
21115;DHT22;10715;48.546;9.896;2022-08-07T11:07:19;31.40;45.00
21115;DHT22;10715;48.546;9.896;2022-08-07T11:09:51;31.20;45.30
21115;DHT22;10715;48.546;9.896;2022-08-07T11:12:39;31.30;45.40
21115;DHT22;10715;48.546;9.896;2022-08-07T11:15:29;31.90;44.20
21115;DHT22;10715;48.546;9.896;2022-08-07T11:21:46;32.60;44.60
21115;DHT22;10715;48.546;9.896;2022-08-07T11:26:46;32.70;44.20
21115;DHT22;10715;48.546;9.896;2022-08-07T11:32:07;32.80;43.80
21115;DHT22;10715;48.546;9.896;2022-08-07T11:34:56;31.90;44.40
21115;DHT22;10715;48.546;9.896;2022-08-07T11:43:08;28.30;50.20
21115;DHT22;10715;48.546;9.896;2022-08-07T11:45:52;27.00;53.00
21115;DHT22;10715;48.546;9.896;2022-08-07T11:48:41;26.00;55.10
21115;DHT22;10715;48.546;9.896;2022-08-07T11:51:50;25.10;56.50
21115;DHT22;10715;48.546;9.896;2022-08-07T12:00:05;24.40;59.10
21115;DHT22;10715;48.546;9.896;2022-08-07T12:02:55;24.30;59.00
21115;DHT22;10715;48.546;9.896;2022-08-07T12:08:21;24.00;60.50
21115;DHT22;10715;48.546;9.896;2022-08-07T12:16:04;23.70;61.90
21115;DHT22;10715;48.546;9.896;2022-08-07T12:24:06;23.60;61.20
21115;DHT22;10715;48.546;9.896;2022-08-07T12:26:53;23.70;61.50
21115;DHT22;10715;48.546;9.896;2022-08-07T12:29:50;23.70;61.00
21115;DHT22;10715;48.546;9.896;2022-08-07T12:34:53;23.80;61.50
21115;DHT22;10715;48.546;9.896;2022-08-07T12:37:20;23.70;62.20
21115;DHT22;10715;48.546;9.896;2022-08-07T12:39:48;23.80;61.30
21115;DHT22;10715;48.546;9.896;2022-08-07T12:42:19;23.80;60.90
21115;DHT22;10715;48.546;9.896;2022-08-07T12:44:46;23.80;60.70
21115;DHT22;10715;48.546;9.896;2022-08-07T12:47:37;23.90;61.40
21115;DHT22;10715;48.546;9.896;2022-08-07T12:50:41;24.10;61.60
21115;DHT22;10715;48.546;9.896;2022-08-07T12:58:20;24.00;61.00
21115;DHT22;10715;48.546;9.896;2022-08-07T13:00:59;24.00;61.10
21115;DHT22;10715;48.546;9.896;2022-08-07T13:06:43;24.10;59.90
21115;DHT22;10715;48.546;9.896;2022-08-07T13:12:21;24.10;60.00
21115;DHT22;10715;48.546;9.896;2022-08-07T13:15:09;24.20;59.60
21115;DHT22;10715;48.546;9.896;2022-08-07T13:17:58;24.20;59.10
21115;DHT22;10715;48.546;9.896;2022-08-07T13:20:40;24.30;60.30
21115;DHT22;10715;48.546;9.896;2022-08-07T13:23:15;24.40;60.40
21115;DHT22;10715;48.546;9.896;2022-08-07T13:25:47;24.40;60.10
21115;DHT22;10715;48.546;9.896;2022-08-07T13:28:43;24.50;59.80
21115;DHT22;10715;48.546;9.896;2022-08-07T13:31:21;24.50;60.80
21115;DHT22;10715;48.546;9.896;2022-08-07T13:37:07;24.70;59.20
21115;DHT22;10715;48.546;9.896;2022-08-07T13:42:37;24.70;59.20
21115;DHT22;10715;48.546;9.896;2022-08-07T13:45:12;24.70;59.50
21115;DHT22;10715;48.546;9.896;2022-08-07T13:47:44;24.80;59.60
21115;DHT22;10715;48.546;9.896;2022-08-07T13:50:21;24.80;58.90
21115;DHT22;10715;48.546;9.896;2022-08-07T13:52:48;24.70;59.00
21115;DHT22;10715;48.546;9.896;2022-08-07T13:55:19;24.60;58.50
21115;DHT22;10715;48.546;9.896;2022-08-07T13:57:52;24.70;59.40
21115;DHT22;10715;48.546;9.896;2022-08-07T14:00:56;24.70;59.10
21115;DHT22;10715;48.546;9.896;2022-08-07T14:03:28;24.70;59.20
21115;DHT22;10715;48.546;9.896;2022-08-07T14:05:56;24.70;58.90
21115;DHT22;10715;48.546;9.896;2022-08-07T14:08:43;24.80;59.60
21115;DHT22;10715;48.546;9.896;2022-08-07T14:11:13;24.90;58.20
21115;DHT22;10715;48.546;9.896;2022-08-07T14:13:46;24.90;58.80
21115;DHT22;10715;48.546;9.896;2022-08-07T14:16:20;24.80;59.60
21115;DHT22;10715;48.546;9.896;2022-08-07T14:18:51;24.80;59.50
21115;DHT22;10715;48.546;9.896;2022-08-07T14:21:23;24.80;59.30
21115;DHT22;10715;48.546;9.896;2022-08-07T14:24:05;24.70;58.40
21115;DHT22;10715;48.546;9.896;2022-08-07T14:26:54;24.80;59.30
21115;DHT22;10715;48.546;9.896;2022-08-07T14:29:41;24.80;59.10
21115;DHT22;10715;48.546;9.896;2022-08-07T14:32:15;24.90;59.00
21115;DHT22;10715;48.546;9.896;2022-08-07T14:34:45;24.90;58.60
21115;DHT22;10715;48.546;9.896;2022-08-07T14:37:21;25.00;59.10
21115;DHT22;10715;48.546;9.896;2022-08-07T14:39:57;25.20;57.50
21115;DHT22;10715;48.546;9.896;2022-08-07T14:42:31;25.40;58.60
21115;DHT22;10715;48.546;9.896;2022-08-07T14:45:04;25.50;57.20
21115;DHT22;10715;48.546;9.896;2022-08-07T14:47:31;25.50;57.60
21115;DHT22;10715;48.546;9.896;2022-08-07T14:50:02;25.60;57.80
21115;DHT22;10715;48.546;9.896;2022-08-07T14:52:34;25.60;57.70
21115;DHT22;10715;48.546;9.896;2022-08-07T14:55:11;25.60;57.40
21115;DHT22;10715;48.546;9.896;2022-08-07T14:57:38;25.50;57.10
21115;DHT22;10715;48.546;9.896;2022-08-07T15:00:05;25.40;57.70
21115;DHT22;10715;48.546;9.896;2022-08-07T15:02:33;25.20;58.20
21115;DHT22;10715;48.546;9.896;2022-08-07T15:05:02;25.10;57.80
21115;DHT22;10715;48.546;9.896;2022-08-07T15:07:29;25.10;57.40
21115;DHT22;10715;48.546;9.896;2022-08-07T15:09:57;25.10;57.90
21115;DHT22;10715;48.546;9.896;2022-08-07T15:12:31;25.10;57.90
21115;DHT22;10715;48.546;9.896;2022-08-07T15:15:08;24.80;58.40
21115;DHT22;10715;48.546;9.896;2022-08-07T15:17:40;24.60;58.90
21115;DHT22;10715;48.546;9.896;2022-08-07T15:20:10;24.60;58.70
21115;DHT22;10715;48.546;9.896;2022-08-07T15:22:57;24.40;58.70
21115;DHT22;10715;48.546;9.896;2022-08-07T15:25:34;24.20;59.50
21115;DHT22;10715;48.546;9.896;2022-08-07T15:28:04;24.20;60.00
21115;DHT22;10715;48.546;9.896;2022-08-07T15:30:30;24.20;59.10
21115;DHT22;10715;48.546;9.896;2022-08-07T15:32:58;24.20;59.40
21115;DHT22;10715;48.546;9.896;2022-08-07T15:35:28;24.20;60.00
21115;DHT22;10715;48.546;9.896;2022-08-07T15:38:00;24.40;59.70
21115;DHT22;10715;48.546;9.896;2022-08-07T15:40:30;24.70;59.20
21115;DHT22;10715;48.546;9.896;2022-08-07T15:45:37;25.00;58.10
21115;DHT22;10715;48.546;9.896;2022-08-07T15:50:40;25.00;58.30
21115;DHT22;10715;48.546;9.896;2022-08-07T15:53:23;25.20;58.50
21115;DHT22;10715;48.546;9.896;2022-08-07T15:55:55;25.40;57.90
21115;DHT22;10715;48.546;9.896;2022-08-07T15:58:31;25.50;57.80
21115;DHT22;10715;48.546;9.896;2022-08-07T16:00:59;25.60;57.70
21115;DHT22;10715;48.546;9.896;2022-08-07T16:03:30;25.50;57.50
21115;DHT22;10715;48.546;9.896;2022-08-07T16:05:58;25.30;58.40
21115;DHT22;10715;48.546;9.896;2022-08-07T16:08:26;24.90;58.10
21115;DHT22;10715;48.546;9.896;2022-08-07T16:11:05;24.60;58.70
21115;DHT22;10715;48.546;9.896;2022-08-07T16:14:04;24.40;59.00
21115;DHT22;10715;48.546;9.896;2022-08-07T16:16:40;24.20;59.00
21115;DHT22;10715;48.546;9.896;2022-08-07T16:19:25;24.20;60.00
21115;DHT22;10715;48.546;9.896;2022-08-07T16:27:23;24.10;59.90
21115;DHT22;10715;48.546;9.896;2022-08-07T16:30:07;24.20;60.10
21115;DHT22;10715;48.546;9.896;2022-08-07T16:32:43;24.20;60.70
21115;DHT22;10715;48.546;9.896;2022-08-07T16:35:14;24.20;60.00
21115;DHT22;10715;48.546;9.896;2022-08-07T16:59:15;23.60;61.70
21115;DHT22;10715;48.546;9.896;2022-08-07T17:10:08;23.40;61.30
21115;DHT22;10715;48.546;9.896;2022-08-07T17:15:35;23.30;61.60
21115;DHT22;10715;48.546;9.896;2022-08-07T17:20:47;23.20;62.10
21115;DHT22;10715;48.546;9.896;2022-08-07T17:31:48;22.80;62.60
21115;DHT22;10715;48.546;9.896;2022-08-07T17:34:28;22.70;65.00
21115;DHT22;10715;48.546;9.896;2022-08-07T17:36:59;22.50;64.30
21115;DHT22;10715;48.546;9.896;2022-08-07T17:42:02;22.20;63.30
21115;DHT22;10715;48.546;9.896;2022-08-07T17:44:39;22.10;65.20
21115;DHT22;10715;48.546;9.896;2022-08-07T17:50:19;21.70;69.10
21115;DHT22;10715;48.546;9.896;2022-08-07T17:52:53;21.50;70.10
21115;DHT22;10715;48.546;9.896;2022-08-07T17:55:47;21.30;70.90
21115;DHT22;10715;48.546;9.896;2022-08-07T17:58:41;21.10;71.80
21115;DHT22;10715;48.546;9.896;2022-08-07T18:01:18;20.90;72.30
21115;DHT22;10715;48.546;9.896;2022-08-07T18:06:30;20.70;72.10
21115;DHT22;10715;48.546;9.896;2022-08-07T18:08:59;20.50;73.80
21115;DHT22;10715;48.546;9.896;2022-08-07T18:11:57;20.40;74.20
21115;DHT22;10715;48.546;9.896;2022-08-07T18:14:33;20.30;75.50
21115;DHT22;10715;48.546;9.896;2022-08-07T18:17:34;20.20;77.00
21115;DHT22;10715;48.546;9.896;2022-08-07T18:20:13;20.00;77.30
21115;DHT22;10715;48.546;9.896;2022-08-07T18:23:03;19.80;77.90
21115;DHT22;10715;48.546;9.896;2022-08-07T18:25:32;19.70;78.70
21115;DHT22;10715;48.546;9.896;2022-08-07T18:28:21;19.50;79.70
21115;DHT22;10715;48.546;9.896;2022-08-07T18:34:06;19.30;80.90
21115;DHT22;10715;48.546;9.896;2022-08-07T18:44:57;18.60;84.10
21115;DHT22;10715;48.546;9.896;2022-08-07T18:47:55;18.50;84.30
21115;DHT22;10715;48.546;9.896;2022-08-07T18:53:59;18.30;85.60
21115;DHT22;10715;48.546;9.896;2022-08-07T18:56:47;18.20;86.10
21115;DHT22;10715;48.546;9.896;2022-08-07T18:59:24;18.10;86.50
21115;DHT22;10715;48.546;9.896;2022-08-07T19:07:25;17.80;89.20
21115;DHT22;10715;48.546;9.896;2022-08-07T19:10:10;17.60;89.40
21115;DHT22;10715;48.546;9.896;2022-08-07T19:12:56;17.50;90.00
21115;DHT22;10715;48.546;9.896;2022-08-07T19:15:43;17.40;90.30
21115;DHT22;10715;48.546;9.896;2022-08-07T19:18:26;17.30;90.90
21115;DHT22;10715;48.546;9.896;2022-08-07T19:21:09;17.10;91.20
21115;DHT22;10715;48.546;9.896;2022-08-07T19:23:44;17.00;91.30
21115;DHT22;10715;48.546;9.896;2022-08-07T19:26:12;17.00;91.60
21115;DHT22;10715;48.546;9.896;2022-08-07T19:28:45;16.90;92.20
21115;DHT22;10715;48.546;9.896;2022-08-07T19:31:22;16.80;92.40
21115;DHT22;10715;48.546;9.896;2022-08-07T19:33:48;16.70;92.90
21115;DHT22;10715;48.546;9.896;2022-08-07T19:36:17;16.60;93.20
21115;DHT22;10715;48.546;9.896;2022-08-07T19:38:48;16.50;93.70
21115;DHT22;10715;48.546;9.896;2022-08-07T19:41:20;16.40;94.50
21115;DHT22;10715;48.546;9.896;2022-08-07T19:43:52;16.30;94.90
21115;DHT22;10715;48.546;9.896;2022-08-07T19:46:23;16.20;95.40
21115;DHT22;10715;48.546;9.896;2022-08-07T19:49:21;16.10;95.70
21115;DHT22;10715;48.546;9.896;2022-08-07T19:51:50;16.00;96.70
21115;DHT22;10715;48.546;9.896;2022-08-07T19:54:18;15.90;97.00
21115;DHT22;10715;48.546;9.896;2022-08-07T19:56:49;15.80;98.10
21115;DHT22;10715;48.546;9.896;2022-08-07T20:01:49;15.60;98.90
21115;DHT22;10715;48.546;9.896;2022-08-07T20:04:25;15.60;99.70
21115;DHT22;10715;48.546;9.896;2022-08-07T20:06:54;15.50;99.90
21115;DHT22;10715;48.546;9.896;2022-08-07T20:09:22;15.50;99.90
21115;DHT22;10715;48.546;9.896;2022-08-07T20:11:53;15.40;99.90
21115;DHT22;10715;48.546;9.896;2022-08-07T20:14:27;15.40;99.90